EWG96U EDDL-LIMC
Flight info
| Callsign | EWG96U |
|---|---|
| Flight time | 1h 12m |
| Altitude | 23000 |
| Route | KUMIK5Z KUMIK L603 BOMBI/N0448F270 N850 UBENO/N0422F230 N850 RINEX/N0462F330 DCT KRH/N0463F320 DCT NATOR/N0463F330 DCT TRA N850 DEGAD Z424 BASGO/N0470F290 Z424 AKASU/N0399F190 Z424 RIXUV |
| Aircraft | A319/M-SDE3FGHIRWY/LB1 |
Departure
| Time | 2026-05-06 14:42 |
|---|---|
| Airport | Düsseldorf Airport (EDDL) |
Arrival
| Time | 2026-05-06 15:55 |
|---|---|
| Airport | Milan Malpensa International Airport (LIMC) |
| Time | Latitude | Longitude | Altitude | Speed | Heading |
|---|---|---|---|---|---|
| 2026-05-06 14:03 | 51.28150 | 6.76547 | 131 ft | 0 kts | 96° |
| 2026-05-06 14:35 | 51.28151 | 6.76525 | 129 ft | 3 kts | 96° |
| 2026-05-06 14:35 | 51.28152 | 6.76496 | 130 ft | 3 kts | 46° |
| 2026-05-06 14:36 | 51.28136 | 6.76482 | 130 ft | 3 kts | 18° |
| 2026-05-06 14:36 | 51.28131 | 6.76479 | 130 ft | 0 kts | 18° |
| 2026-05-06 14:38 | 51.28138 | 6.76479 | 128 ft | 2 kts | 2° |
| 2026-05-06 14:39 | 51.28159 | 6.76463 | 129 ft | 5 kts | 334° |
| 2026-05-06 14:39 | 51.28201 | 6.76440 | 131 ft | 8 kts | 350° |
| 2026-05-06 14:39 | 51.28256 | 6.76478 | 129 ft | 11 kts | 46° |
| 2026-05-06 14:39 | 51.28322 | 6.76451 | 125 ft | 15 kts | 282° |
| 2026-05-06 14:40 | 51.28266 | 6.76308 | 132 ft | 16 kts | 233° |
| 2026-05-06 14:40 | 51.28196 | 6.76157 | 129 ft | 18 kts | 233° |
| 2026-05-06 14:40 | 51.28116 | 6.75990 | 127 ft | 20 kts | 232° |
| 2026-05-06 14:40 | 51.28025 | 6.75802 | 133 ft | 23 kts | 232° |
| 2026-05-06 14:41 | 51.27948 | 6.75642 | 129 ft | 14 kts | 232° |
| 2026-05-06 14:41 | 51.27981 | 6.75535 | 128 ft | 14 kts | 335° |
| 2026-05-06 14:41 | 51.28087 | 6.75492 | 127 ft | 17 kts | 21° |
| 2026-05-06 14:41 | 51.28172 | 6.75641 | 128 ft | 23 kts | 53° |
| 2026-05-06 14:42 | 51.28365 | 6.76047 | 134 ft | 75 kts | 52° |
| 2026-05-06 14:42 | 51.28802 | 6.76960 | 132 ft | 131 kts | 53° |
| 2026-05-06 14:42 | 51.29394 | 6.78219 | 533 ft | 143 kts | 51° |
| 2026-05-06 14:42 | 51.30002 | 6.79476 | 1163 ft | 143 kts | 50° |
| 2026-05-06 14:43 | 51.30629 | 6.80768 | 1628 ft | 155 kts | 51° |
| 2026-05-06 14:43 | 51.31329 | 6.82246 | 1977 ft | 178 kts | 51° |
| 2026-05-06 14:43 | 51.32128 | 6.83938 | 2340 ft | 204 kts | 51° |
| 2026-05-06 14:43 | 51.33034 | 6.85852 | 2847 ft | 228 kts | 51° |
| 2026-05-06 14:44 | 51.34025 | 6.87990 | 3480 ft | 248 kts | 53° |
| 2026-05-06 14:44 | 51.34982 | 6.90355 | 4380 ft | 260 kts | 66° |
| 2026-05-06 14:44 | 51.35263 | 6.93229 | 5316 ft | 268 kts | 95° |
| 2026-05-06 14:45 | 51.34654 | 6.99210 | 7256 ft | 277 kts | 99° |
| 2026-05-06 14:45 | 51.34336 | 7.02274 | 8174 ft | 282 kts | 99° |
| 2026-05-06 14:45 | 51.34018 | 7.05391 | 9072 ft | 286 kts | 99° |
| 2026-05-06 14:45 | 51.33696 | 7.08566 | 9926 ft | 292 kts | 99° |
| 2026-05-06 14:46 | 51.33362 | 7.11881 | 10378 ft | 314 kts | 99° |
| 2026-05-06 14:46 | 51.33001 | 7.15454 | 10666 ft | 337 kts | 100° |
| 2026-05-06 14:46 | 51.32622 | 7.19281 | 10894 ft | 360 kts | 99° |
| 2026-05-06 14:46 | 51.32285 | 7.23310 | 11406 ft | 370 kts | 98° |
| 2026-05-06 14:47 | 51.31981 | 7.27439 | 12061 ft | 376 kts | 98° |
| 2026-05-06 14:47 | 51.31690 | 7.31626 | 12734 ft | 381 kts | 98° |
| 2026-05-06 14:47 | 51.31227 | 7.35752 | 13391 ft | 383 kts | 107° |
| 2026-05-06 14:47 | 51.30281 | 7.39729 | 14065 ft | 384 kts | 118° |
| 2026-05-06 14:48 | 51.28872 | 7.43352 | 14728 ft | 385 kts | 129° |
| 2026-05-06 14:48 | 51.27167 | 7.46663 | 15383 ft | 387 kts | 132° |
| 2026-05-06 14:48 | 51.25441 | 7.49982 | 16029 ft | 391 kts | 132° |
| 2026-05-06 14:48 | 51.23700 | 7.53338 | 16664 ft | 394 kts | 132° |
| 2026-05-06 14:49 | 51.21948 | 7.56721 | 17276 ft | 397 kts | 131° |
| 2026-05-06 14:49 | 51.20182 | 7.60132 | 17889 ft | 401 kts | 131° |
| 2026-05-06 14:49 | 51.18397 | 7.63577 | 18497 ft | 404 kts | 131° |
| 2026-05-06 14:49 | 51.16546 | 7.66955 | 19045 ft | 406 kts | 137° |
| 2026-05-06 14:50 | 51.14401 | 7.69888 | 19582 ft | 408 kts | 144° |
| 2026-05-06 14:50 | 51.12145 | 7.72652 | 20125 ft | 411 kts | 144° |
| 2026-05-06 14:50 | 51.09870 | 7.75438 | 20630 ft | 414 kts | 144° |
| 2026-05-06 14:50 | 51.07575 | 7.78242 | 21112 ft | 418 kts | 144° |
| 2026-05-06 14:51 | 51.05261 | 7.81066 | 21565 ft | 421 kts | 144° |
| 2026-05-06 14:51 | 51.02933 | 7.83910 | 22012 ft | 424 kts | 144° |
| 2026-05-06 14:51 | 51.00587 | 7.86777 | 22439 ft | 427 kts | 144° |
| 2026-05-06 14:51 | 50.98222 | 7.89660 | 22735 ft | 430 kts | 144° |
| 2026-05-06 14:52 | 50.95833 | 7.92566 | 22801 ft | 437 kts | 144° |
| 2026-05-06 14:52 | 50.93389 | 7.95531 | 22807 ft | 447 kts | 144° |
| 2026-05-06 14:52 | 50.90902 | 7.98543 | 22803 ft | 451 kts | 144° |
| 2026-05-06 14:52 | 50.88412 | 8.01561 | 22797 ft | 452 kts | 144° |
| 2026-05-06 14:53 | 50.85927 | 8.04593 | 22793 ft | 451 kts | 143° |
| 2026-05-06 14:53 | 50.83640 | 8.08011 | 22786 ft | 454 kts | 134° |
| 2026-05-06 14:53 | 50.81705 | 8.11969 | 22785 ft | 456 kts | 126° |
| 2026-05-06 14:53 | 50.79958 | 8.16158 | 22785 ft | 457 kts | 126° |
| 2026-05-06 14:54 | 50.78201 | 8.20337 | 22785 ft | 457 kts | 126° |
| 2026-05-06 14:54 | 50.76436 | 8.24506 | 22785 ft | 457 kts | 126° |
| 2026-05-06 14:54 | 50.74664 | 8.28672 | 22783 ft | 457 kts | 126° |
| 2026-05-06 14:54 | 50.72887 | 8.32841 | 22781 ft | 457 kts | 126° |
| 2026-05-06 14:55 | 50.71025 | 8.36895 | 22779 ft | 455 kts | 132° |
| 2026-05-06 14:55 | 50.68853 | 8.40407 | 22780 ft | 451 kts | 141° |
| 2026-05-06 14:55 | 50.66318 | 8.43394 | 22775 ft | 448 kts | 150° |
| 2026-05-06 14:55 | 50.63602 | 8.45779 | 22774 ft | 446 kts | 154° |
| 2026-05-06 14:56 | 50.60896 | 8.48057 | 22772 ft | 447 kts | 154° |
| 2026-05-06 14:56 | 50.58156 | 8.50371 | 22769 ft | 447 kts | 154° |
| 2026-05-06 14:56 | 50.55418 | 8.52682 | 22771 ft | 446 kts | 154° |
| 2026-05-06 14:56 | 50.52683 | 8.54989 | 22769 ft | 446 kts | 154° |
| 2026-05-06 14:57 | 50.49939 | 8.57298 | 22767 ft | 446 kts | 154° |
| 2026-05-06 14:57 | 50.47201 | 8.59597 | 22768 ft | 446 kts | 154° |
| 2026-05-06 14:57 | 50.44418 | 8.61751 | 22767 ft | 445 kts | 160° |
| 2026-05-06 14:57 | 50.41498 | 8.63297 | 22772 ft | 443 kts | 166° |
| 2026-05-06 14:58 | 50.38543 | 8.64688 | 22770 ft | 443 kts | 166° |
| 2026-05-06 14:58 | 50.35591 | 8.66075 | 22769 ft | 443 kts | 166° |
| 2026-05-06 14:58 | 50.32638 | 8.67463 | 22767 ft | 443 kts | 166° |
| 2026-05-06 14:58 | 50.29690 | 8.68846 | 22771 ft | 443 kts | 166° |
| 2026-05-06 14:59 | 50.26739 | 8.70227 | 22767 ft | 443 kts | 166° |
| 2026-05-06 14:59 | 50.23784 | 8.71604 | 22766 ft | 443 kts | 166° |
| 2026-05-06 14:59 | 50.20835 | 8.72974 | 22766 ft | 443 kts | 166° |
| 2026-05-06 14:59 | 50.17881 | 8.74346 | 22769 ft | 443 kts | 166° |
| 2026-05-06 15:00 | 50.14927 | 8.75720 | 22771 ft | 443 kts | 166° |
| 2026-05-06 15:00 | 50.11978 | 8.77094 | 22771 ft | 442 kts | 166° |
| 2026-05-06 15:00 | 50.09012 | 8.78390 | 22765 ft | 441 kts | 170° |
| 2026-05-06 15:00 | 50.05986 | 8.79039 | 22766 ft | 438 kts | 179° |
| 2026-05-06 15:01 | 50.02952 | 8.78916 | 22765 ft | 436 kts | 188° |
| 2026-05-06 15:01 | 49.99977 | 8.78061 | 22769 ft | 434 kts | 194° |
| 2026-05-06 15:01 | 49.97071 | 8.77030 | 22770 ft | 434 kts | 194° |
| 2026-05-06 15:01 | 49.94125 | 8.76002 | 22774 ft | 434 kts | 194° |
| 2026-05-06 15:02 | 49.91179 | 8.74986 | 22773 ft | 434 kts | 194° |
| 2026-05-06 15:02 | 49.88226 | 8.73974 | 22782 ft | 436 kts | 194° |
| 2026-05-06 15:02 | 49.85242 | 8.72953 | 22901 ft | 441 kts | 194° |
| 2026-05-06 15:02 | 49.82225 | 8.71922 | 23040 ft | 447 kts | 193° |
| 2026-05-06 15:03 | 49.79160 | 8.70875 | 23154 ft | 453 kts | 193° |
| 2026-05-06 15:03 | 49.76071 | 8.69820 | 23286 ft | 458 kts | 193° |
| 2026-05-06 15:03 | 49.72936 | 8.68917 | 23555 ft | 460 kts | 187° |
| 2026-05-06 15:03 | 49.69744 | 8.68477 | 23911 ft | 459 kts | 186° |
| 2026-05-06 15:04 | 49.66565 | 8.68052 | 24287 ft | 459 kts | 186° |
| 2026-05-06 15:04 | 49.63388 | 8.67622 | 24696 ft | 457 kts | 186° |
| 2026-05-06 15:04 | 49.60230 | 8.67195 | 25142 ft | 454 kts | 186° |
| 2026-05-06 15:04 | 49.57090 | 8.66771 | 25606 ft | 452 kts | 186° |
| 2026-05-06 15:05 | 49.53967 | 8.66353 | 26102 ft | 448 kts | 186° |
| 2026-05-06 15:05 | 49.50872 | 8.65938 | 26604 ft | 445 kts | 186° |
| 2026-05-06 15:05 | 49.47795 | 8.65525 | 27093 ft | 442 kts | 186° |
| 2026-05-06 15:05 | 49.44746 | 8.65118 | 27582 ft | 439 kts | 186° |
| 2026-05-06 15:06 | 49.41712 | 8.64715 | 28084 ft | 436 kts | 186° |
| 2026-05-06 15:06 | 49.38743 | 8.64321 | 28582 ft | 432 kts | 186° |
| 2026-05-06 15:06 | 49.35718 | 8.63923 | 29087 ft | 429 kts | 186° |
| 2026-05-06 15:06 | 49.32797 | 8.63539 | 29574 ft | 426 kts | 187° |
| 2026-05-06 15:07 | 49.29858 | 8.63131 | 30079 ft | 423 kts | 187° |
| 2026-05-06 15:07 | 49.26941 | 8.62693 | 30578 ft | 419 kts | 188° |
| 2026-05-06 15:07 | 49.24043 | 8.62239 | 31023 ft | 418 kts | 188° |
| 2026-05-06 15:07 | 49.21156 | 8.61780 | 31426 ft | 417 kts | 188° |
| 2026-05-06 15:08 | 49.18271 | 8.61325 | 31814 ft | 417 kts | 188° |
| 2026-05-06 15:08 | 49.15387 | 8.60877 | 32205 ft | 416 kts | 188° |
| 2026-05-06 15:08 | 49.12510 | 8.60434 | 32606 ft | 415 kts | 188° |
| 2026-05-06 15:08 | 49.09632 | 8.59995 | 32783 ft | 415 kts | 188° |
| 2026-05-06 15:09 | 49.06756 | 8.59557 | 32804 ft | 415 kts | 188° |
| 2026-05-06 15:09 | 49.01024 | 8.58687 | 32813 ft | 413 kts | 188° |
| 2026-05-06 15:10 | 48.95390 | 8.57150 | 32814 ft | 411 kts | 194° |
| 2026-05-06 15:10 | 48.89797 | 8.55337 | 32813 ft | 411 kts | 194° |
| 2026-05-06 15:11 | 48.84211 | 8.53534 | 32821 ft | 410 kts | 194° |
| 2026-05-06 15:11 | 48.78633 | 8.51738 | 32815 ft | 410 kts | 194° |
| 2026-05-06 15:12 | 48.73059 | 8.49945 | 32816 ft | 409 kts | 194° |
| 2026-05-06 15:12 | 48.67484 | 8.48160 | 32819 ft | 409 kts | 194° |
| 2026-05-06 15:13 | 48.61963 | 8.46393 | 32818 ft | 408 kts | 194° |
| 2026-05-06 15:13 | 48.56407 | 8.44615 | 32822 ft | 408 kts | 194° |
| 2026-05-06 15:14 | 48.50851 | 8.42845 | 32825 ft | 408 kts | 194° |
| 2026-05-06 15:14 | 48.45300 | 8.41084 | 32827 ft | 407 kts | 194° |
| 2026-05-06 15:15 | 48.39759 | 8.39316 | 32831 ft | 407 kts | 194° |
| 2026-05-06 15:15 | 48.34220 | 8.37553 | 32831 ft | 407 kts | 194° |
| 2026-05-06 15:16 | 48.29618 | 8.36099 | 32829 ft | 407 kts | 194° |
| 2026-05-06 15:16 | 48.24082 | 8.34358 | 32839 ft | 406 kts | 194° |
| 2026-05-06 15:17 | 48.18530 | 8.32721 | 32835 ft | 408 kts | 189° |
| 2026-05-06 15:17 | 48.12826 | 8.33129 | 32837 ft | 415 kts | 174° |
| 2026-05-06 15:18 | 48.07122 | 8.34528 | 32845 ft | 415 kts | 175° |
| 2026-05-06 15:18 | 48.01426 | 8.35904 | 32848 ft | 415 kts | 175° |
| 2026-05-06 15:19 | 47.95721 | 8.37273 | 32848 ft | 415 kts | 175° |
| 2026-05-06 15:19 | 47.90030 | 8.38646 | 32858 ft | 414 kts | 175° |
| 2026-05-06 15:20 | 47.84342 | 8.40013 | 32857 ft | 414 kts | 175° |
| 2026-05-06 15:20 | 47.78682 | 8.41369 | 32861 ft | 414 kts | 175° |
| 2026-05-06 15:21 | 47.72998 | 8.42732 | 32867 ft | 413 kts | 175° |
| 2026-05-06 15:21 | 47.67318 | 8.44046 | 32869 ft | 412 kts | 177° |
| 2026-05-06 15:22 | 47.61624 | 8.44942 | 32870 ft | 411 kts | 179° |
| 2026-05-06 15:22 | 47.55927 | 8.45659 | 32876 ft | 411 kts | 179° |
| 2026-05-06 15:23 | 47.50229 | 8.46435 | 32880 ft | 411 kts | 179° |
| 2026-05-06 15:23 | 47.44545 | 8.47281 | 32883 ft | 411 kts | 179° |
| 2026-05-06 15:24 | 47.38862 | 8.48139 | 32886 ft | 410 kts | 179° |
| 2026-05-06 15:24 | 47.33228 | 8.48967 | 32895 ft | 410 kts | 179° |
| 2026-05-06 15:25 | 47.27551 | 8.49784 | 32896 ft | 410 kts | 179° |
| 2026-05-06 15:25 | 47.21884 | 8.50600 | 32891 ft | 409 kts | 179° |
| 2026-05-06 15:26 | 47.16212 | 8.51427 | 32896 ft | 409 kts | 179° |
| 2026-05-06 15:26 | 47.10557 | 8.52249 | 32896 ft | 409 kts | 179° |
| 2026-05-06 15:27 | 47.04896 | 8.53074 | 32894 ft | 408 kts | 179° |
| 2026-05-06 15:27 | 46.99253 | 8.53887 | 32901 ft | 408 kts | 179° |
| 2026-05-06 15:28 | 46.93613 | 8.54703 | 32901 ft | 407 kts | 180° |
| 2026-05-06 15:28 | 46.88007 | 8.55510 | 32898 ft | 407 kts | 180° |
| 2026-05-06 15:29 | 46.82379 | 8.56321 | 32898 ft | 406 kts | 180° |
| 2026-05-06 15:29 | 46.76754 | 8.57121 | 32902 ft | 406 kts | 180° |
| 2026-05-06 15:30 | 46.71124 | 8.57919 | 32898 ft | 406 kts | 180° |
| 2026-05-06 15:30 | 46.65511 | 8.58718 | 32901 ft | 406 kts | 180° |
| 2026-05-06 15:31 | 46.59890 | 8.59520 | 32897 ft | 405 kts | 180° |
| 2026-05-06 15:31 | 46.54268 | 8.60324 | 32903 ft | 405 kts | 180° |
| 2026-05-06 15:32 | 46.48647 | 8.61126 | 32521 ft | 406 kts | 181° |
| 2026-05-06 15:32 | 46.45852 | 8.61129 | 32265 ft | 399 kts | 190° |
| 2026-05-06 15:32 | 46.43139 | 8.60392 | 32022 ft | 394 kts | 199° |
| 2026-05-06 15:32 | 46.40590 | 8.58993 | 31670 ft | 390 kts | 207° |
| 2026-05-06 15:33 | 46.38222 | 8.57046 | 30660 ft | 394 kts | 213° |
| 2026-05-06 15:33 | 46.35873 | 8.54930 | 29596 ft | 400 kts | 213° |
| 2026-05-06 15:33 | 46.33502 | 8.52787 | 28524 ft | 403 kts | 212° |
| 2026-05-06 15:33 | 46.31087 | 8.50686 | 27445 ft | 407 kts | 209° |
| 2026-05-06 15:34 | 46.28462 | 8.49087 | 26357 ft | 411 kts | 200° |
| 2026-05-06 15:34 | 46.25667 | 8.48156 | 25257 ft | 415 kts | 191° |
| 2026-05-06 15:34 | 46.22774 | 8.47937 | 24147 ft | 419 kts | 181° |
| 2026-05-06 15:34 | 46.19856 | 8.48311 | 23023 ft | 421 kts | 177° |
| 2026-05-06 15:35 | 46.16950 | 8.48737 | 21905 ft | 420 kts | 177° |
| 2026-05-06 15:35 | 46.14043 | 8.49151 | 20785 ft | 420 kts | 177° |
| 2026-05-06 15:35 | 46.11151 | 8.49741 | 19802 ft | 419 kts | 170° |
| 2026-05-06 15:35 | 46.08460 | 8.50969 | 19562 ft | 402 kts | 162° |
| 2026-05-06 15:36 | 46.05914 | 8.52357 | 19431 ft | 381 kts | 162° |
| 2026-05-06 15:36 | 46.03480 | 8.53663 | 19307 ft | 365 kts | 163° |
| 2026-05-06 15:36 | 46.01152 | 8.54899 | 19181 ft | 349 kts | 163° |
| 2026-05-06 15:36 | 45.98921 | 8.56081 | 19050 ft | 334 kts | 163° |
| 2026-05-06 15:37 | 45.96790 | 8.57217 | 18923 ft | 320 kts | 163° |
| 2026-05-06 15:37 | 45.94736 | 8.58316 | 18473 ft | 311 kts | 163° |
| 2026-05-06 15:37 | 45.92724 | 8.59389 | 18129 ft | 304 kts | 163° |
| 2026-05-06 15:37 | 45.90741 | 8.60463 | 18060 ft | 306 kts | 160° |
| 2026-05-06 15:38 | 45.88875 | 8.61972 | 17843 ft | 312 kts | 149° |
| 2026-05-06 15:38 | 45.87148 | 8.63932 | 17350 ft | 316 kts | 145° |
| 2026-05-06 15:38 | 45.85458 | 8.65907 | 16989 ft | 313 kts | 145° |
| 2026-05-06 15:38 | 45.83777 | 8.67875 | 16570 ft | 312 kts | 145° |
| 2026-05-06 15:39 | 45.82101 | 8.69832 | 16142 ft | 310 kts | 145° |
| 2026-05-06 15:39 | 45.80429 | 8.71776 | 15715 ft | 309 kts | 145° |
| 2026-05-06 15:39 | 45.78761 | 8.73711 | 15294 ft | 308 kts | 145° |
| 2026-05-06 15:39 | 45.77098 | 8.75634 | 14885 ft | 306 kts | 146° |
| 2026-05-06 15:40 | 45.75331 | 8.77262 | 14478 ft | 301 kts | 155° |
| 2026-05-06 15:40 | 45.73491 | 8.78669 | 14069 ft | 299 kts | 155° |
| 2026-05-06 15:40 | 45.71667 | 8.80073 | 13564 ft | 296 kts | 155° |
| 2026-05-06 15:40 | 45.69858 | 8.81466 | 12917 ft | 295 kts | 155° |
| 2026-05-06 15:41 | 45.68059 | 8.82850 | 12277 ft | 292 kts | 155° |
| 2026-05-06 15:41 | 45.66270 | 8.84222 | 11645 ft | 291 kts | 155° |
| 2026-05-06 15:41 | 45.64527 | 8.85565 | 11311 ft | 279 kts | 155° |
| 2026-05-06 15:41 | 45.62837 | 8.86867 | 10961 ft | 274 kts | 155° |
| 2026-05-06 15:42 | 45.61083 | 8.87866 | 10830 ft | 271 kts | 169° |
| 2026-05-06 15:42 | 45.59239 | 8.88375 | 10839 ft | 271 kts | 172° |
| 2026-05-06 15:42 | 45.57390 | 8.88874 | 10838 ft | 270 kts | 172° |
| 2026-05-06 15:42 | 45.55540 | 8.89376 | 10833 ft | 270 kts | 172° |
| 2026-05-06 15:43 | 45.53692 | 8.89880 | 10835 ft | 271 kts | 171° |
| 2026-05-06 15:43 | 45.51841 | 8.90386 | 10831 ft | 271 kts | 172° |
| 2026-05-06 15:43 | 45.49990 | 8.90892 | 10832 ft | 271 kts | 172° |
| 2026-05-06 15:43 | 45.48167 | 8.91392 | 10834 ft | 271 kts | 172° |
| 2026-05-06 15:44 | 45.46316 | 8.91896 | 10832 ft | 270 kts | 172° |
| 2026-05-06 15:44 | 45.44467 | 8.92399 | 10830 ft | 270 kts | 172° |
| 2026-05-06 15:44 | 45.42619 | 8.92901 | 10833 ft | 271 kts | 172° |
| 2026-05-06 15:44 | 45.40776 | 8.93402 | 10635 ft | 269 kts | 172° |
| 2026-05-06 15:45 | 45.38950 | 8.93899 | 10243 ft | 264 kts | 172° |
| 2026-05-06 15:45 | 45.37143 | 8.94389 | 9665 ft | 267 kts | 171° |
| 2026-05-06 15:45 | 45.35322 | 8.94880 | 9121 ft | 265 kts | 171° |
| 2026-05-06 15:45 | 45.33518 | 8.95367 | 8569 ft | 264 kts | 171° |
| 2026-05-06 15:46 | 45.31717 | 8.95856 | 8030 ft | 262 kts | 171° |
| 2026-05-06 15:46 | 45.29929 | 8.96341 | 7495 ft | 261 kts | 171° |
| 2026-05-06 15:46 | 45.28154 | 8.96819 | 6975 ft | 259 kts | 171° |
| 2026-05-06 15:46 | 45.26389 | 8.97277 | 6451 ft | 257 kts | 173° |
| 2026-05-06 15:47 | 45.24635 | 8.97209 | 5918 ft | 251 kts | 198° |
| 2026-05-06 15:47 | 45.23170 | 8.95936 | 5386 ft | 248 kts | 228° |
| 2026-05-06 15:47 | 45.22390 | 8.93767 | 5002 ft | 251 kts | 258° |
| 2026-05-06 15:47 | 45.22504 | 8.91307 | 4666 ft | 254 kts | 288° |
| 2026-05-06 15:48 | 45.23487 | 8.89242 | 4329 ft | 257 kts | 316° |
| 2026-05-06 15:48 | 45.24909 | 8.87692 | 3964 ft | 258 kts | 323° |
| 2026-05-06 15:48 | 45.26349 | 8.86240 | 3613 ft | 256 kts | 323° |
| 2026-05-06 15:48 | 45.27837 | 8.84768 | 3275 ft | 259 kts | 324° |
| 2026-05-06 15:49 | 45.29296 | 8.83326 | 3041 ft | 254 kts | 323° |
| 2026-05-06 15:49 | 45.30845 | 8.82151 | 2968 ft | 255 kts | 342° |
| 2026-05-06 15:49 | 45.32577 | 8.81649 | 2970 ft | 254 kts | 349° |
| 2026-05-06 15:49 | 45.34290 | 8.81242 | 2971 ft | 243 kts | 349° |
| 2026-05-06 15:50 | 45.35937 | 8.80798 | 2972 ft | 238 kts | 348° |
| 2026-05-06 15:50 | 45.37558 | 8.80353 | 2969 ft | 236 kts | 348° |
| 2026-05-06 15:50 | 45.39175 | 8.79908 | 2971 ft | 236 kts | 348° |
| 2026-05-06 15:50 | 45.40797 | 8.79461 | 2980 ft | 238 kts | 349° |
| 2026-05-06 15:51 | 45.42426 | 8.79017 | 2985 ft | 238 kts | 348° |
| 2026-05-06 15:51 | 45.44046 | 8.78569 | 2978 ft | 237 kts | 348° |
| 2026-05-06 15:51 | 45.45657 | 8.78123 | 2974 ft | 236 kts | 348° |
| 2026-05-06 15:51 | 45.47256 | 8.77688 | 2969 ft | 228 kts | 348° |
| 2026-05-06 15:52 | 45.48753 | 8.77283 | 2973 ft | 210 kts | 348° |
| 2026-05-06 15:52 | 45.50144 | 8.76900 | 2971 ft | 200 kts | 348° |
| 2026-05-06 15:52 | 45.51495 | 8.76527 | 2709 ft | 195 kts | 348° |
| 2026-05-06 15:52 | 45.52830 | 8.76160 | 2454 ft | 195 kts | 348° |
| 2026-05-06 15:53 | 45.54139 | 8.75800 | 2201 ft | 193 kts | 349° |
| 2026-05-06 15:53 | 45.55455 | 8.75434 | 1951 ft | 190 kts | 351° |
| 2026-05-06 15:53 | 45.56713 | 8.75088 | 1707 ft | 178 kts | 351° |
| 2026-05-06 15:53 | 45.57883 | 8.74766 | 1475 ft | 165 kts | 350° |
| 2026-05-06 15:54 | 45.58966 | 8.74468 | 1265 ft | 153 kts | 350° |
| 2026-05-06 15:54 | 45.59971 | 8.74183 | 1088 ft | 141 kts | 348° |
| 2026-05-06 15:54 | 45.60920 | 8.73932 | 905 ft | 137 kts | 350° |
| 2026-05-06 15:54 | 45.61845 | 8.73675 | 752 ft | 132 kts | 349° |
| 2026-05-06 15:55 | 45.62634 | 8.73456 | 742 ft | 93 kts | 349° |
| 2026-05-06 15:55 | 45.63065 | 8.73325 | 737 ft | 42 kts | 339° |
| 2026-05-06 15:55 | 45.63258 | 8.73065 | 741 ft | 33 kts | 306° |
| 2026-05-06 15:55 | 45.63351 | 8.72875 | 739 ft | 13 kts | 305° |
| 2026-05-06 15:56 | 45.63367 | 8.72840 | 741 ft | 0 kts | 303° |
| 2026-05-06 15:57 | 45.63368 | 8.72838 | 740 ft | 1 kts | 303° |
| 2026-05-06 15:57 | 45.63371 | 8.72831 | 741 ft | 0 kts | 303° |
| 2026-05-06 15:58 | 45.63373 | 8.72827 | 741 ft | 1 kts | 303° |
| 2026-05-06 15:58 | 45.63381 | 8.72804 | 741 ft | 4 kts | 294° |
| 2026-05-06 15:58 | 45.63390 | 8.72756 | 741 ft | 6 kts | 282° |
| 2026-05-06 15:59 | 45.63391 | 8.72744 | 741 ft | 1 kts | 281° |
| 2026-05-06 15:59 | 45.63394 | 8.72719 | 741 ft | 4 kts | 278° |
| 2026-05-06 15:59 | 45.63398 | 8.72649 | 741 ft | 12 kts | 271° |
| 2026-05-06 15:59 | 45.63389 | 8.72516 | 741 ft | 15 kts | 259° |
| 2026-05-06 16:00 | 45.63367 | 8.72356 | 741 ft | 18 kts | 259° |
| 2026-05-06 16:00 | 45.63343 | 8.72171 | 742 ft | 20 kts | 259° |
| 2026-05-06 16:00 | 45.63316 | 8.71967 | 741 ft | 22 kts | 259° |
| 2026-05-06 16:00 | 45.63287 | 8.71761 | 739 ft | 17 kts | 258° |
| 2026-05-06 16:01 | 45.63231 | 8.71668 | 740 ft | 13 kts | 174° |
| 2026-05-06 16:01 | 45.63133 | 8.71697 | 741 ft | 16 kts | 168° |
| 2026-05-06 16:01 | 45.63016 | 8.71728 | 741 ft | 18 kts | 169° |
| 2026-05-06 16:01 | 45.62882 | 8.71765 | 741 ft | 21 kts | 169° |
| 2026-05-06 16:02 | 45.62730 | 8.71807 | 741 ft | 23 kts | 169° |
| 2026-05-06 16:02 | 45.62638 | 8.71830 | 741 ft | 11 kts | 175° |
| 2026-05-06 16:02 | 45.62573 | 8.71769 | 740 ft | 13 kts | 230° |
| 2026-05-06 16:02 | 45.62547 | 8.71724 | 741 ft | 0 kts | 231° |
| 2026-05-06 16:03 | 45.62545 | 8.71720 | 741 ft | 0 kts | 231° |